createdAt,value
2023-03-23T00:01:42.571Z,92484.00
2023-03-23T00:05:42.935Z,92488.00
2023-03-23T00:09:42.982Z,92488.00
2023-03-23T00:13:42.483Z,92490.00
2023-03-23T00:17:42.454Z,92488.00
2023-03-23T00:21:42.431Z,92484.00
2023-03-23T00:25:42.721Z,92478.00
2023-03-23T00:29:42.360Z,92484.00
2023-03-23T00:33:42.316Z,92476.00
2023-03-23T00:37:42.297Z,92472.00
2023-03-23T00:41:42.270Z,92472.00
2023-03-23T00:45:42.476Z,92470.00
2023-03-23T00:49:42.199Z,92472.00
2023-03-23T00:53:42.147Z,92472.00
2023-03-23T00:57:42.104Z,92466.00
2023-03-23T01:01:42.096Z,92462.00
2023-03-23T01:05:42.328Z,92462.00
2023-03-23T01:09:42.031Z,92462.00
2023-03-23T01:13:42.481Z,92458.00
2023-03-23T01:17:42.012Z,92455.00
2023-03-23T01:21:42.000Z,92451.00
2023-03-23T01:25:42.256Z,92456.00
2023-03-23T01:29:41.993Z,92451.00
2023-03-23T01:33:41.979Z,92447.00
2023-03-23T01:37:41.972Z,92445.00
2023-03-23T01:41:41.977Z,92443.00
2023-03-23T01:45:42.266Z,92445.00
2023-03-23T01:49:41.958Z,92439.00
2023-03-23T01:53:41.957Z,92441.00
2023-03-23T01:57:41.945Z,92437.00
2023-03-23T02:01:41.937Z,92439.00
2023-03-23T02:05:42.107Z,92439.00
2023-03-23T02:09:41.899Z,92435.00
2023-03-23T02:13:41.875Z,92437.00
2023-03-23T02:17:41.855Z,92433.00
2023-03-23T02:21:41.829Z,92433.00
2023-03-23T02:25:41.953Z,92431.00
2023-03-23T02:29:43.636Z,92429.00
2023-03-23T02:33:41.612Z,92433.00
2023-03-23T02:37:41.429Z,92433.00
2023-03-23T02:41:41.262Z,92431.00
2023-03-23T02:45:41.184Z,92421.00
2023-03-23T02:49:40.977Z,92417.00
2023-03-23T02:53:40.733Z,92417.00
2023-03-23T02:57:40.742Z,92417.00
2023-03-23T03:01:40.435Z,92419.00
2023-03-23T03:05:40.410Z,92421.00
2023-03-23T03:09:40.000Z,92421.00
2023-03-23T03:13:39.806Z,92427.00
2023-03-23T03:17:39.752Z,92437.00
2023-03-23T03:21:39.728Z,92429.00
2023-03-23T03:25:40.374Z,92431.00
2023-03-23T03:29:39.685Z,92433.00
2023-03-23T03:33:39.972Z,92439.00
2023-03-23T03:37:39.670Z,92439.00
2023-03-23T03:41:39.663Z,92441.00
2023-03-23T03:45:39.670Z,92453.00
2023-03-23T03:49:39.641Z,92453.00
2023-03-23T03:53:39.637Z,92458.00
2023-03-23T03:57:39.626Z,92460.00
2023-03-23T04:01:39.622Z,92462.00
2023-03-23T04:05:39.980Z,92460.00
2023-03-23T04:09:39.626Z,92460.00
2023-03-23T04:13:39.613Z,92466.00
2023-03-23T04:17:39.613Z,92468.00
2023-03-23T04:21:39.597Z,92464.00
2023-03-23T04:25:39.726Z,92478.00
2023-03-23T04:29:39.576Z,92476.00
2023-03-23T04:33:58.722Z,92468.00
2023-03-23T04:37:40.380Z,92466.00
2023-03-23T04:41:39.474Z,92466.00
2023-03-23T04:45:39.169Z,92474.00
2023-03-23T04:49:38.942Z,92478.00
2023-03-23T04:53:38.931Z,92480.00
2023-03-23T04:57:38.863Z,92482.00
2023-03-23T05:01:38.824Z,92492.00
2023-03-23T05:05:38.789Z,92488.00
2023-03-23T05:09:38.815Z,92492.00
2023-03-23T05:13:38.707Z,92498.00
2023-03-23T05:17:38.670Z,92492.00
2023-03-23T05:21:38.640Z,92500.00
2023-03-23T05:25:38.601Z,92494.00
2023-03-23T05:29:38.570Z,92494.00
2023-03-23T05:33:38.573Z,92494.00
2023-03-23T05:37:38.464Z,92496.00
2023-03-23T05:41:38.440Z,92474.00
2023-03-23T05:45:38.250Z,92478.00
2023-03-23T05:49:38.067Z,92480.00
2023-03-23T05:53:37.894Z,92490.00
2023-03-23T05:57:37.711Z,92502.00
2023-03-23T06:01:37.530Z,92502.00
2023-03-23T06:05:37.340Z,92505.00
2023-03-23T06:09:37.144Z,92500.00
2023-03-23T06:13:36.965Z,92494.00
2023-03-23T06:17:36.796Z,92496.00
2023-03-23T06:21:36.613Z,92490.00
2023-03-23T06:25:36.444Z,92488.00
2023-03-23T06:29:36.280Z,92484.00
2023-03-23T06:33:36.121Z,92490.00
2023-03-23T06:37:35.960Z,92482.00
2023-03-23T06:41:35.801Z,92480.00
2023-03-23T06:45:35.627Z,92480.00
2023-03-23T06:49:35.464Z,92482.00
2023-03-23T06:53:35.294Z,92488.00
2023-03-23T06:57:35.212Z,92482.00
2023-03-23T07:01:35.220Z,92478.00
2023-03-23T07:05:35.133Z,92478.00
2023-03-23T07:09:43.116Z,92474.00
2023-03-23T07:13:36.470Z,92484.00
2023-03-23T07:17:34.768Z,92488.00
2023-03-23T07:21:34.610Z,92494.00
2023-03-23T07:25:34.434Z,92490.00
2023-03-23T07:29:34.315Z,92498.00
2023-03-23T07:33:34.258Z,92500.00
2023-03-23T07:37:34.174Z,92505.00
2023-03-23T07:41:34.110Z,92505.00
2023-03-23T07:45:34.078Z,92503.00
2023-03-23T07:49:33.998Z,92502.00
2023-03-23T07:53:33.964Z,92500.00
2023-03-23T07:57:33.895Z,92505.00
2023-03-23T08:01:33.863Z,92505.00
2023-03-23T08:05:33.885Z,92505.00
2023-03-23T08:09:33.929Z,92505.00
2023-03-23T08:13:33.986Z,92505.00
2023-03-23T08:17:33.964Z,92507.00
2023-03-23T08:21:34.056Z,92507.00
2023-03-23T08:25:33.992Z,92505.00
2023-03-23T08:29:33.934Z,92502.00
2023-03-23T08:33:34.410Z,92494.00
2023-03-23T08:37:33.776Z,92502.00
2023-03-23T08:41:33.755Z,92488.00
2023-03-23T08:45:33.657Z,92496.00
2023-03-23T08:49:33.600Z,92502.00
2023-03-23T08:53:34.377Z,92503.00
2023-03-23T08:57:33.505Z,92502.00
2023-03-23T09:01:33.449Z,92500.00
2023-03-23T09:05:34.979Z,92498.00
2023-03-23T09:09:33.442Z,92500.00
2023-03-23T09:13:33.321Z,92492.00
2023-03-23T09:17:33.449Z,92494.00
2023-03-23T09:21:33.252Z,92492.00
2023-03-23T09:25:33.951Z,92490.00
2023-03-23T09:29:33.872Z,92478.00
2023-03-23T09:33:33.120Z,92478.00
2023-03-23T09:37:33.067Z,92478.00
2023-03-23T09:41:33.025Z,92462.00
2023-03-23T09:45:33.000Z,92462.00
2023-03-23T09:49:32.994Z,92453.00
2023-03-23T09:53:33.845Z,92451.00
2023-03-23T09:57:32.688Z,92445.00
2023-03-23T10:01:32.550Z,92449.00
2023-03-23T10:05:32.364Z,92451.00
2023-03-23T10:09:32.276Z,92447.00
2023-03-23T10:13:32.234Z,92455.00
2023-03-23T10:17:32.294Z,92449.00
2023-03-23T10:21:32.227Z,92443.00
2023-03-23T10:25:32.170Z,92437.00
2023-03-23T10:29:32.131Z,92441.00
2023-03-23T10:33:32.081Z,92439.00
2023-03-23T10:37:32.026Z,92443.00
2023-03-23T10:41:31.993Z,92445.00
2023-03-23T10:45:32.469Z,92447.00
2023-03-23T10:49:31.912Z,92449.00
2023-03-23T10:53:31.813Z,92443.00
2023-03-23T10:57:31.783Z,92445.00
2023-03-23T11:01:31.720Z,92443.00
2023-03-23T11:05:31.716Z,92437.00
2023-03-23T11:09:31.644Z,92439.00
2023-03-23T11:13:31.702Z,92441.00
2023-03-23T11:17:31.954Z,92435.00
2023-03-23T11:21:31.606Z,92421.00
2023-03-23T11:25:31.702Z,92415.00
2023-03-23T11:29:32.927Z,92411.00
2023-03-23T11:33:31.459Z,92406.00
2023-03-23T11:37:31.422Z,92406.00
2023-03-23T11:41:31.398Z,92402.00
2023-03-23T11:45:31.373Z,92404.00
2023-03-23T11:49:33.511Z,92396.00
2023-03-23T11:53:31.135Z,92398.00
2023-03-23T11:57:30.946Z,92390.00
2023-03-23T12:01:30.832Z,92388.00
2023-03-23T12:05:30.643Z,92386.00
2023-03-23T12:09:30.402Z,92376.00
2023-03-23T12:13:30.234Z,92370.00
2023-03-23T12:17:30.094Z,92360.00
2023-03-23T12:21:29.920Z,92358.00
2023-03-23T12:25:29.741Z,92335.00
2023-03-23T12:29:29.557Z,92318.00
2023-03-23T12:33:29.367Z,92312.00
2023-03-23T12:37:29.201Z,92292.00
2023-03-23T12:41:29.033Z,92284.00
2023-03-23T12:45:28.889Z,92270.00
2023-03-23T12:49:28.693Z,92261.00
2023-03-23T12:53:28.517Z,92259.00
2023-03-23T12:57:28.456Z,92269.00
2023-03-23T13:01:28.153Z,92259.00
2023-03-23T13:05:27.985Z,92255.00
2023-03-23T13:09:27.808Z,92237.00
2023-03-23T13:13:27.643Z,92245.00
2023-03-23T13:17:27.464Z,92235.00
2023-03-23T13:21:27.291Z,92229.00
2023-03-23T13:25:27.268Z,92227.00
2023-03-23T13:29:26.970Z,92222.00
2023-03-23T13:33:26.755Z,92218.00
2023-03-23T13:37:26.585Z,92212.00
2023-03-23T13:41:26.406Z,92204.00
2023-03-23T13:45:26.282Z,92198.00
2023-03-23T13:49:26.180Z,92198.00
2023-03-23T13:53:26.229Z,92190.00
2023-03-23T13:57:25.920Z,92182.00
2023-03-23T14:01:26.442Z,92175.00
2023-03-23T14:05:25.591Z,92173.00
2023-03-23T14:09:25.406Z,92169.00
2023-03-23T14:13:25.228Z,92159.00
2023-03-23T14:17:25.050Z,92155.00
2023-03-23T14:21:25.445Z,92157.00
2023-03-23T14:25:24.690Z,92151.00
2023-03-23T14:29:24.499Z,92153.00
2023-03-23T14:33:24.326Z,92145.00
2023-03-23T14:37:24.106Z,92145.00
2023-03-23T14:41:24.005Z,92143.00
2023-03-23T14:45:23.899Z,92151.00
2023-03-23T14:49:23.780Z,92147.00
2023-03-23T14:53:23.685Z,92153.00
2023-03-23T14:57:23.579Z,92149.00
2023-03-23T15:01:23.460Z,92143.00
2023-03-23T15:05:23.353Z,92137.00
2023-03-23T15:09:23.234Z,92135.00
2023-03-23T15:13:23.138Z,92143.00
2023-03-23T15:17:23.031Z,92141.00
2023-03-23T15:21:23.090Z,92139.00
2023-03-23T15:25:22.841Z,92145.00
2023-03-23T15:29:26.660Z,92141.00
2023-03-23T15:33:22.536Z,92141.00
2023-03-23T15:37:23.386Z,92139.00
2023-03-23T15:41:22.204Z,92141.00
2023-03-23T15:45:21.931Z,92139.00
2023-03-23T15:49:21.718Z,92147.00
2023-03-23T15:53:21.546Z,92147.00
2023-03-23T15:57:21.409Z,92145.00
2023-03-23T16:01:21.387Z,92149.00
2023-03-23T16:05:21.236Z,92155.00
2023-03-23T16:09:21.153Z,92153.00
2023-03-23T16:13:21.089Z,92159.00
2023-03-23T16:17:21.014Z,92163.00
2023-03-23T16:21:20.957Z,92163.00
2023-03-23T16:25:20.890Z,92165.00
2023-03-23T16:29:40.079Z,92167.00
2023-03-23T16:33:21.678Z,92175.00
2023-03-23T16:41:20.560Z,92178.00
2023-03-23T16:45:20.067Z,92176.00
2023-03-23T16:49:19.866Z,92178.00
2023-03-23T17:01:19.714Z,92196.00
2023-03-23T17:05:19.596Z,92206.00
2023-03-23T17:09:19.510Z,92212.00
2023-03-23T17:13:19.487Z,92220.00
2023-03-23T17:17:19.369Z,92223.00
2023-03-23T17:21:19.471Z,92220.00
2023-03-23T17:45:18.992Z,92239.00
2023-03-23T17:49:18.821Z,92243.00
2023-03-23T17:53:18.757Z,92247.00
2023-03-23T18:01:18.682Z,92267.00
2023-03-23T18:09:18.512Z,92282.00
2023-03-23T18:13:18.453Z,92292.00
2023-03-23T18:17:18.409Z,92302.00
2023-03-23T18:25:18.297Z,92320.00
2023-03-23T18:29:18.254Z,92324.00
2023-03-23T18:33:19.054Z,92331.00
2023-03-23T18:41:18.104Z,92322.00
2023-03-23T18:45:18.044Z,92324.00
2023-03-23T18:49:17.971Z,92337.00
2023-03-23T18:53:17.916Z,92341.00
2023-03-23T18:57:17.850Z,92349.00
2023-03-23T19:01:17.856Z,92351.00
2023-03-23T19:05:17.742Z,92356.00
2023-03-23T19:09:17.760Z,92354.00
2023-03-23T19:17:17.566Z,92366.00
2023-03-23T19:25:17.424Z,92374.00
2023-03-23T19:29:25.515Z,92374.00
2023-03-23T19:33:18.169Z,92380.00
2023-03-23T19:45:16.625Z,92398.00
2023-03-23T19:49:16.546Z,92402.00
2023-03-23T19:53:18.917Z,92400.00
2023-03-23T19:57:16.378Z,92398.00
2023-03-23T20:01:16.469Z,92394.00
2023-03-23T20:05:16.590Z,92390.00
2023-03-23T20:09:15.774Z,92382.00
2023-03-23T20:13:15.597Z,92382.00
2023-03-23T20:17:15.406Z,92384.00
2023-03-23T20:21:15.222Z,92388.00
2023-03-23T20:25:15.257Z,92402.00
2023-03-23T20:29:14.862Z,92400.00
2023-03-23T20:33:14.678Z,92398.00
2023-03-23T20:37:14.479Z,92396.00
2023-03-23T20:41:14.298Z,92386.00
2023-03-23T20:45:14.116Z,92378.00
2023-03-23T20:49:13.953Z,92392.00
2023-03-23T20:53:13.780Z,92404.00
2023-03-23T20:57:13.691Z,92400.00
2023-03-23T21:01:13.608Z,92400.00
2023-03-23T21:05:13.540Z,92411.00
2023-03-23T21:09:13.485Z,92406.00
2023-03-23T21:13:13.925Z,92402.00
2023-03-23T21:17:13.352Z,92396.00
2023-03-23T21:21:13.287Z,92396.00
2023-03-23T21:25:13.212Z,92400.00
2023-03-23T21:29:13.152Z,92402.00
2023-03-23T21:37:13.024Z,92402.00
2023-03-23T21:41:12.982Z,92400.00
2023-03-23T21:45:12.920Z,92400.00
2023-03-23T21:49:12.872Z,92398.00
2023-03-23T22:33:12.245Z,92386.00
2023-03-23T22:49:12.044Z,92378.00
2023-03-23T22:57:12.433Z,92366.00
2023-03-23T23:09:11.724Z,92364.00
2023-03-23T23:13:11.681Z,92366.00
2023-03-23T23:17:11.642Z,92364.00
2023-03-23T23:21:11.622Z,92364.00
2023-03-23T23:25:11.536Z,92360.00
2023-03-23T23:29:11.496Z,92362.00
2023-03-23T23:33:11.438Z,92364.00
